CHIUDI BANNER

Seguici su twitter Seguici su facebook
LIVE Streaming HD
Get Adobe Flash player
Animazione Masse d'Aria e Nubi
satellite e T nubi
DNA SURF SHOP
Consigli pubblicitari di Google
Dati meteo stazione (refresh automatico ogni minuto)
Ostia VENTO: VELOCITÀ   PIOGGIA: QTA GIORNO TEMPERATURA: ATTUALE
SPOT: Kursaal Lido Ostia ---- Posizione su Googlemap:Latitudine: 41.71N Longitudine: 12.31E RAFFICA MASSIMA: QTA MENSILE: MASSIMA:
VELOCITÀ MEDIA: QTA ANNUALE: MINIMA:
DIREZIONE: UMIDITÀ: WIND CHILL:
TIPO: DEW POINT:
BEAUFORT: PRESSIONE:
I nostri partner
Ostia nelle ultime ore
Applica filtri in visualizzazione Intervallo delle letture nelle ultime

Ora Direzione Vento Velocita' Vento Media Vento Raffica Max. Temperatura Wind Chill Pioggia Pressione
21:12:09204 °(SSW)0 Kts0 Kts13 Kts24.9 °C24.9 °C2.8 mm1009.9 Hpa
21:07:52204 °(SSW)0 Kts0 Kts13 Kts24.9 °C24.9 °C2.8 mm1009.9 Hpa
21:02:31205 °(SSW)0 Kts0 Kts13 Kts25.2 °C25.2 °C2.8 mm1009.9 Hpa
20:57:22204 °(SSW)0 Kts0.9 Kts13 Kts25.2 °C25.2 °C2.8 mm1009.8 Hpa
20:53:03204 °(SSW)0 Kts2.6 Kts13 Kts25.4 °C25.4 °C2.8 mm1009.7 Hpa
20:47:38204 °(SSW)2.6 Kts4.3 Kts13 Kts25.2 °C24.9 °C2.8 mm1009.6 Hpa
20:42:13198 °(SSW)5.2 Kts5.2 Kts13 Kts25.2 °C24.6 °C2.8 mm1009.4 Hpa
20:37:57197 °(SSW)4.3 Kts5.2 Kts13 Kts25.2 °C24.6 °C2.8 mm1009.4 Hpa
20:32:58195 °(SSW)5.2 Kts5.2 Kts13 Kts25.4 °C24.8 °C2.8 mm1009.2 Hpa
19:48:54173 °(S)6.1 Kts6.1 Kts13 Kts25.7 °C24.7 °C2.8 mm1008.9 Hpa
19:48:54173 °(S)6.1 Kts6.1 Kts13 Kts25.7 °C24.7 °C2.8 mm1008.9 Hpa
19:48:54173 °(S)6.1 Kts6.1 Kts13 Kts25.7 °C24.7 °C2.8 mm1008.9 Hpa
19:48:54173 °(S)6.1 Kts6.1 Kts13 Kts25.7 °C24.7 °C2.8 mm1008.9 Hpa
19:48:54173 °(S)6.1 Kts6.1 Kts13 Kts25.7 °C24.7 °C2.8 mm1008.9 Hpa
19:48:54173 °(S)6.1 Kts6.1 Kts13 Kts25.7 °C24.7 °C2.8 mm1008.9 Hpa
19:48:54173 °(S)6.1 Kts6.1 Kts13 Kts25.7 °C24.7 °C2.8 mm1008.9 Hpa
19:48:54173 °(S)6.1 Kts6.1 Kts13 Kts25.7 °C24.7 °C2.8 mm1008.9 Hpa
19:46:50175 °(S)6.1 Kts5.2 Kts13 Kts25.7 °C25.1 °C2.8 mm1008.9 Hpa
19:42:43167 °(SSE)6.1 Kts5.2 Kts13 Kts25.8 °C25.1 °C2.8 mm1008.7 Hpa
19:35:05167 °(SSE)4.3 Kts4.3 Kts13 Kts25.7 °C25.4 °C2.8 mm1008.9 Hpa
19:32:28164 °(SSE)4.3 Kts4.3 Kts13 Kts25.7 °C25.4 °C2.8 mm1008.9 Hpa
19:26:19164 °(SSE)3.5 Kts5.2 Kts13 Kts25.8 °C25.1 °C2.8 mm1008.7 Hpa
19:22:13157 °(SSE)5.2 Kts5.2 Kts13 Kts25.8 °C25.1 °C2.8 mm1008.9 Hpa
19:16:04158 °(SSE)5.2 Kts5.2 Kts13 Kts25.7 °C25.2 °C2.8 mm1008.9 Hpa